sensor_id;sensor_type;location;lat;lon;timestamp;temperature;humidity
48686;DHT22;34485;51.536;3.816;2023-04-24T00:00:55;10.20;99.90
48686;DHT22;34485;51.536;3.816;2023-04-24T00:03:27;10.20;99.90
48686;DHT22;34485;51.536;3.816;2023-04-24T00:05:54;10.20;99.90
48686;DHT22;34485;51.536;3.816;2023-04-24T00:08:19;10.20;99.90
48686;DHT22;34485;51.536;3.816;2023-04-24T00:10:45;10.20;99.90
48686;DHT22;34485;51.536;3.816;2023-04-24T00:13:11;10.10;99.90
48686;DHT22;34485;51.536;3.816;2023-04-24T00:15:37;10.10;99.90
48686;DHT22;34485;51.536;3.816;2023-04-24T00:18:02;10.10;99.90
48686;DHT22;34485;51.536;3.816;2023-04-24T00:20:28;10.00;99.90
48686;DHT22;34485;51.536;3.816;2023-04-24T00:23:01;10.00;99.90
48686;DHT22;34485;51.536;3.816;2023-04-24T00:25:26;10.00;99.90
48686;DHT22;34485;51.536;3.816;2023-04-24T00:27:52;9.90;99.90
48686;DHT22;34485;51.536;3.816;2023-04-24T00:30:18;9.90;99.90
48686;DHT22;34485;51.536;3.816;2023-04-24T00:32:43;9.90;99.90
48686;DHT22;34485;51.536;3.816;2023-04-24T00:35:09;9.90;99.90
48686;DHT22;34485;51.536;3.816;2023-04-24T00:37:35;9.90;99.90
48686;DHT22;34485;51.536;3.816;2023-04-24T00:40:01;9.90;99.90
48686;DHT22;34485;51.536;3.816;2023-04-24T00:42:27;9.90;99.90
48686;DHT22;34485;51.536;3.816;2023-04-24T00:44:53;9.90;99.90
48686;DHT22;34485;51.536;3.816;2023-04-24T00:47:19;9.90;99.90
48686;DHT22;34485;51.536;3.816;2023-04-24T00:49:47;9.90;99.90
48686;DHT22;34485;51.536;3.816;2023-04-24T00:52:13;9.90;99.90
48686;DHT22;34485;51.536;3.816;2023-04-24T00:54:45;9.90;99.90
48686;DHT22;34485;51.536;3.816;2023-04-24T00:57:13;9.90;99.90
48686;DHT22;34485;51.536;3.816;2023-04-24T00:59:41;9.90;99.90
48686;DHT22;34485;51.536;3.816;2023-04-24T01:02:07;9.80;99.90
48686;DHT22;34485;51.536;3.816;2023-04-24T01:04:34;9.80;99.90
48686;DHT22;34485;51.536;3.816;2023-04-24T01:07:00;9.80;99.90
48686;DHT22;34485;51.536;3.816;2023-04-24T01:09:26;9.80;99.90
48686;DHT22;34485;51.536;3.816;2023-04-24T01:11:52;9.80;99.90
48686;DHT22;34485;51.536;3.816;2023-04-24T01:14:18;9.70;99.90
48686;DHT22;34485;51.536;3.816;2023-04-24T01:16:44;9.60;99.90
48686;DHT22;34485;51.536;3.816;2023-04-24T01:19:10;9.60;99.90
48686;DHT22;34485;51.536;3.816;2023-04-24T01:21:38;9.50;99.90
48686;DHT22;34485;51.536;3.816;2023-04-24T01:24:05;9.50;99.90
48686;DHT22;34485;51.536;3.816;2023-04-24T01:26:31;9.50;99.90
48686;DHT22;34485;51.536;3.816;2023-04-24T01:28:57;9.40;99.90
48686;DHT22;34485;51.536;3.816;2023-04-24T01:31:23;9.30;99.90
48686;DHT22;34485;51.536;3.816;2023-04-24T01:33:49;9.30;99.90
48686;DHT22;34485;51.536;3.816;2023-04-24T01:36:19;9.30;99.90
48686;DHT22;34485;51.536;3.816;2023-04-24T01:38:45;9.30;99.90
48686;DHT22;34485;51.536;3.816;2023-04-24T01:41:10;9.30;99.90
48686;DHT22;34485;51.536;3.816;2023-04-24T01:43:36;9.30;99.90
48686;DHT22;34485;51.536;3.816;2023-04-24T01:46:02;9.40;99.90
48686;DHT22;34485;51.536;3.816;2023-04-24T01:48:28;9.40;99.90
48686;DHT22;34485;51.536;3.816;2023-04-24T01:50:53;9.40;99.90
48686;DHT22;34485;51.536;3.816;2023-04-24T01:53:19;9.40;99.90
48686;DHT22;34485;51.536;3.816;2023-04-24T01:55:45;9.50;99.90
48686;DHT22;34485;51.536;3.816;2023-04-24T01:58:10;9.50;99.90
48686;DHT22;34485;51.536;3.816;2023-04-24T02:00:36;9.50;99.90
48686;DHT22;34485;51.536;3.816;2023-04-24T02:03:02;9.50;99.90
48686;DHT22;34485;51.536;3.816;2023-04-24T02:05:28;9.50;99.90
48686;DHT22;34485;51.536;3.816;2023-04-24T02:07:53;9.50;99.90
48686;DHT22;34485;51.536;3.816;2023-04-24T02:10:19;9.50;99.90
48686;DHT22;34485;51.536;3.816;2023-04-24T02:12:44;9.40;99.90
48686;DHT22;34485;51.536;3.816;2023-04-24T02:15:10;9.40;99.90
48686;DHT22;34485;51.536;3.816;2023-04-24T02:17:37;9.40;99.90
48686;DHT22;34485;51.536;3.816;2023-04-24T02:20:03;9.40;99.90
48686;DHT22;34485;51.536;3.816;2023-04-24T02:22:28;9.30;99.90
48686;DHT22;34485;51.536;3.816;2023-04-24T02:24:55;9.30;99.90
48686;DHT22;34485;51.536;3.816;2023-04-24T02:27:20;9.40;99.90
48686;DHT22;34485;51.536;3.816;2023-04-24T02:29:46;9.30;99.90
48686;DHT22;34485;51.536;3.816;2023-04-24T02:32:12;9.30;99.90
48686;DHT22;34485;51.536;3.816;2023-04-24T02:34:37;9.30;99.90
48686;DHT22;34485;51.536;3.816;2023-04-24T02:37:03;9.30;99.90
48686;DHT22;34485;51.536;3.816;2023-04-24T02:39:29;9.30;99.90
48686;DHT22;34485;51.536;3.816;2023-04-24T02:41:55;9.30;99.90
48686;DHT22;34485;51.536;3.816;2023-04-24T02:44:20;9.30;99.90
48686;DHT22;34485;51.536;3.816;2023-04-24T02:46:47;9.20;99.90
48686;DHT22;34485;51.536;3.816;2023-04-24T02:49:12;9.20;99.90
48686;DHT22;34485;51.536;3.816;2023-04-24T02:51:38;9.20;99.90
48686;DHT22;34485;51.536;3.816;2023-04-24T02:54:07;9.20;99.90
48686;DHT22;34485;51.536;3.816;2023-04-24T02:56:33;9.10;99.90
48686;DHT22;34485;51.536;3.816;2023-04-24T02:58:59;9.10;99.90
48686;DHT22;34485;51.536;3.816;2023-04-24T03:01:24;9.10;99.90
48686;DHT22;34485;51.536;3.816;2023-04-24T03:03:50;9.10;99.90
48686;DHT22;34485;51.536;3.816;2023-04-24T03:06:16;9.10;99.90
48686;DHT22;34485;51.536;3.816;2023-04-24T03:08:41;9.00;99.90
48686;DHT22;34485;51.536;3.816;2023-04-24T03:11:07;9.00;99.90
48686;DHT22;34485;51.536;3.816;2023-04-24T03:13:32;9.00;99.90
48686;DHT22;34485;51.536;3.816;2023-04-24T03:15:58;9.00;99.90
48686;DHT22;34485;51.536;3.816;2023-04-24T03:18:24;9.00;99.90
48686;DHT22;34485;51.536;3.816;2023-04-24T03:20:49;9.00;99.90
48686;DHT22;34485;51.536;3.816;2023-04-24T03:23:15;8.90;99.90
48686;DHT22;34485;51.536;3.816;2023-04-24T03:25:41;8.90;99.90
48686;DHT22;34485;51.536;3.816;2023-04-24T03:28:08;8.90;99.90
48686;DHT22;34485;51.536;3.816;2023-04-24T03:30:33;8.80;99.90
48686;DHT22;34485;51.536;3.816;2023-04-24T03:33:00;8.80;99.90
48686;DHT22;34485;51.536;3.816;2023-04-24T03:35:26;8.90;99.90
48686;DHT22;34485;51.536;3.816;2023-04-24T03:37:51;8.90;99.90
48686;DHT22;34485;51.536;3.816;2023-04-24T03:40:17;8.90;99.90
48686;DHT22;34485;51.536;3.816;2023-04-24T03:42:42;8.80;99.90
48686;DHT22;34485;51.536;3.816;2023-04-24T03:45:08;8.80;99.90
48686;DHT22;34485;51.536;3.816;2023-04-24T03:47:34;8.80;99.90
48686;DHT22;34485;51.536;3.816;2023-04-24T03:50:01;8.80;99.90
48686;DHT22;34485;51.536;3.816;2023-04-24T03:52:26;8.80;99.90
48686;DHT22;34485;51.536;3.816;2023-04-24T03:54:52;8.70;99.90
48686;DHT22;34485;51.536;3.816;2023-04-24T03:57:18;8.70;99.90
48686;DHT22;34485;51.536;3.816;2023-04-24T03:59:43;8.70;99.90
48686;DHT22;34485;51.536;3.816;2023-04-24T04:02:09;8.70;99.90
48686;DHT22;34485;51.536;3.816;2023-04-24T04:04:35;8.70;99.90
48686;DHT22;34485;51.536;3.816;2023-04-24T04:07:00;8.70;99.90
48686;DHT22;34485;51.536;3.816;2023-04-24T04:09:28;8.70;99.90
48686;DHT22;34485;51.536;3.816;2023-04-24T04:11:54;8.70;99.90
48686;DHT22;34485;51.536;3.816;2023-04-24T04:14:19;8.70;99.90
48686;DHT22;34485;51.536;3.816;2023-04-24T04:16:45;8.70;99.90
48686;DHT22;34485;51.536;3.816;2023-04-24T04:19:10;8.70;99.90
48686;DHT22;34485;51.536;3.816;2023-04-24T04:21:36;8.70;99.90
48686;DHT22;34485;51.536;3.816;2023-04-24T04:24:02;8.70;99.90
48686;DHT22;34485;51.536;3.816;2023-04-24T04:26:27;8.70;99.90
48686;DHT22;34485;51.536;3.816;2023-04-24T04:28:53;8.70;99.90
48686;DHT22;34485;51.536;3.816;2023-04-24T04:31:22;8.70;99.90
48686;DHT22;34485;51.536;3.816;2023-04-24T04:33:48;8.70;99.90
48686;DHT22;34485;51.536;3.816;2023-04-24T04:36:14;8.70;99.90
48686;DHT22;34485;51.536;3.816;2023-04-24T04:38:39;8.70;99.90
48686;DHT22;34485;51.536;3.816;2023-04-24T04:41:06;8.70;99.90
48686;DHT22;34485;51.536;3.816;2023-04-24T04:43:32;8.70;99.90
48686;DHT22;34485;51.536;3.816;2023-04-24T04:45:59;8.70;99.90
48686;DHT22;34485;51.536;3.816;2023-04-24T04:48:26;8.70;99.90
48686;DHT22;34485;51.536;3.816;2023-04-24T04:50:52;8.70;99.90
48686;DHT22;34485;51.536;3.816;2023-04-24T04:53:18;8.70;99.90
48686;DHT22;34485;51.536;3.816;2023-04-24T04:55:43;8.70;99.90
48686;DHT22;34485;51.536;3.816;2023-04-24T04:58:09;8.70;99.90
48686;DHT22;34485;51.536;3.816;2023-04-24T05:00:35;8.70;99.90
48686;DHT22;34485;51.536;3.816;2023-04-24T05:03:02;8.70;99.90
48686;DHT22;34485;51.536;3.816;2023-04-24T05:05:28;8.80;99.90
48686;DHT22;34485;51.536;3.816;2023-04-24T05:07:54;8.80;99.90
48686;DHT22;34485;51.536;3.816;2023-04-24T05:10:20;8.80;99.90
48686;DHT22;34485;51.536;3.816;2023-04-24T05:12:46;8.80;99.90
48686;DHT22;34485;51.536;3.816;2023-04-24T05:15:11;8.90;99.90
48686;DHT22;34485;51.536;3.816;2023-04-24T05:17:37;8.80;99.90
48686;DHT22;34485;51.536;3.816;2023-04-24T05:20:03;8.90;99.90
48686;DHT22;34485;51.536;3.816;2023-04-24T05:22:31;8.90;99.90
48686;DHT22;34485;51.536;3.816;2023-04-24T05:24:56;8.90;99.90
48686;DHT22;34485;51.536;3.816;2023-04-24T05:27:22;8.90;99.90
48686;DHT22;34485;51.536;3.816;2023-04-24T05:29:48;8.90;99.90
48686;DHT22;34485;51.536;3.816;2023-04-24T05:32:14;8.90;99.90
48686;DHT22;34485;51.536;3.816;2023-04-24T05:34:39;8.90;99.90
48686;DHT22;34485;51.536;3.816;2023-04-24T05:37:05;8.90;99.90
48686;DHT22;34485;51.536;3.816;2023-04-24T05:39:34;8.90;99.90
48686;DHT22;34485;51.536;3.816;2023-04-24T05:42:00;8.90;99.90
48686;DHT22;34485;51.536;3.816;2023-04-24T05:44:27;9.00;99.90
48686;DHT22;34485;51.536;3.816;2023-04-24T05:46:52;9.00;99.90
48686;DHT22;34485;51.536;3.816;2023-04-24T05:49:18;9.00;99.90
48686;DHT22;34485;51.536;3.816;2023-04-24T05:51:44;9.10;99.90
48686;DHT22;34485;51.536;3.816;2023-04-24T05:54:10;9.10;99.90
48686;DHT22;34485;51.536;3.816;2023-04-24T05:56:37;9.10;99.90
48686;DHT22;34485;51.536;3.816;2023-04-24T05:59:03;9.10;99.90
48686;DHT22;34485;51.536;3.816;2023-04-24T06:01:29;9.10;99.90
48686;DHT22;34485;51.536;3.816;2023-04-24T06:03:55;9.10;99.90
48686;DHT22;34485;51.536;3.816;2023-04-24T06:06:20;9.10;99.90
48686;DHT22;34485;51.536;3.816;2023-04-24T06:08:46;9.00;99.90
48686;DHT22;34485;51.536;3.816;2023-04-24T06:11:12;9.00;99.90
48686;DHT22;34485;51.536;3.816;2023-04-24T06:13:37;8.90;99.90
48686;DHT22;34485;51.536;3.816;2023-04-24T06:16:03;8.90;99.90
48686;DHT22;34485;51.536;3.816;2023-04-24T06:18:29;8.90;99.90
48686;DHT22;34485;51.536;3.816;2023-04-24T06:20:54;8.90;99.90
48686;DHT22;34485;51.536;3.816;2023-04-24T06:23:20;8.90;99.90
48686;DHT22;34485;51.536;3.816;2023-04-24T06:25:46;8.90;99.90
48686;DHT22;34485;51.536;3.816;2023-04-24T06:28:12;8.80;99.90
48686;DHT22;34485;51.536;3.816;2023-04-24T06:30:38;8.80;99.90
48686;DHT22;34485;51.536;3.816;2023-04-24T06:33:04;8.80;99.90
48686;DHT22;34485;51.536;3.816;2023-04-24T06:35:29;8.80;99.90
48686;DHT22;34485;51.536;3.816;2023-04-24T06:37:55;8.90;99.90
48686;DHT22;34485;51.536;3.816;2023-04-24T06:40:22;9.00;99.90
48686;DHT22;34485;51.536;3.816;2023-04-24T06:42:47;9.00;99.90
48686;DHT22;34485;51.536;3.816;2023-04-24T06:45:13;9.00;99.90
48686;DHT22;34485;51.536;3.816;2023-04-24T06:47:38;9.10;99.90
48686;DHT22;34485;51.536;3.816;2023-04-24T06:50:05;9.20;99.90
48686;DHT22;34485;51.536;3.816;2023-04-24T06:52:31;9.20;99.90
48686;DHT22;34485;51.536;3.816;2023-04-24T06:55:00;9.20;99.90
48686;DHT22;34485;51.536;3.816;2023-04-24T06:57:27;9.10;99.90
48686;DHT22;34485;51.536;3.816;2023-04-24T06:59:53;9.10;99.90
48686;DHT22;34485;51.536;3.816;2023-04-24T07:02:18;9.00;99.90
48686;DHT22;34485;51.536;3.816;2023-04-24T07:04:44;9.10;99.90
48686;DHT22;34485;51.536;3.816;2023-04-24T07:07:12;9.10;99.90
48686;DHT22;34485;51.536;3.816;2023-04-24T07:09:39;9.00;99.90
48686;DHT22;34485;51.536;3.816;2023-04-24T07:12:10;9.00;99.90
48686;DHT22;34485;51.536;3.816;2023-04-24T07:14:39;9.00;99.90
48686;DHT22;34485;51.536;3.816;2023-04-24T07:17:05;9.00;99.90
48686;DHT22;34485;51.536;3.816;2023-04-24T07:19:33;9.00;99.90
48686;DHT22;34485;51.536;3.816;2023-04-24T07:21:58;9.00;99.90
48686;DHT22;34485;51.536;3.816;2023-04-24T07:24:25;9.00;99.90
48686;DHT22;34485;51.536;3.816;2023-04-24T07:26:51;9.10;99.90
48686;DHT22;34485;51.536;3.816;2023-04-24T07:29:17;9.10;99.90
48686;DHT22;34485;51.536;3.816;2023-04-24T07:31:43;9.10;99.90
48686;DHT22;34485;51.536;3.816;2023-04-24T07:34:09;9.20;99.90
48686;DHT22;34485;51.536;3.816;2023-04-24T07:36:35;9.30;99.90
48686;DHT22;34485;51.536;3.816;2023-04-24T07:39:01;9.50;99.90
48686;DHT22;34485;51.536;3.816;2023-04-24T07:41:26;9.60;99.90
48686;DHT22;34485;51.536;3.816;2023-04-24T07:43:53;9.90;99.90
48686;DHT22;34485;51.536;3.816;2023-04-24T07:48:45;10.30;99.90
48686;DHT22;34485;51.536;3.816;2023-04-24T07:51:14;10.60;99.90
48686;DHT22;34485;51.536;3.816;2023-04-24T07:53:40;10.50;99.90
48686;DHT22;34485;51.536;3.816;2023-04-24T07:56:06;10.20;99.90
48686;DHT22;34485;51.536;3.816;2023-04-24T07:58:31;10.40;99.90
48686;DHT22;34485;51.536;3.816;2023-04-24T08:00:57;11.30;99.90
48686;DHT22;34485;51.536;3.816;2023-04-24T08:03:23;11.90;99.90
48686;DHT22;34485;51.536;3.816;2023-04-24T08:05:49;11.90;99.20
48686;DHT22;34485;51.536;3.816;2023-04-24T08:08:16;11.70;99.90
48686;DHT22;34485;51.536;3.816;2023-04-24T08:10:42;11.50;99.50
48686;DHT22;34485;51.536;3.816;2023-04-24T08:13:07;11.40;99.90
48686;DHT22;34485;51.536;3.816;2023-04-24T08:15:33;11.40;99.90
48686;DHT22;34485;51.536;3.816;2023-04-24T08:17:59;11.40;99.90
48686;DHT22;34485;51.536;3.816;2023-04-24T08:20:25;11.00;99.90
48686;DHT22;34485;51.536;3.816;2023-04-24T08:22:50;10.70;99.90
48686;DHT22;34485;51.536;3.816;2023-04-24T08:25:16;10.50;99.90
48686;DHT22;34485;51.536;3.816;2023-04-24T08:27:43;10.30;99.90
48686;DHT22;34485;51.536;3.816;2023-04-24T08:30:09;10.20;99.90
48686;DHT22;34485;51.536;3.816;2023-04-24T08:32:35;10.10;99.90
48686;DHT22;34485;51.536;3.816;2023-04-24T08:35:01;10.00;99.90
48686;DHT22;34485;51.536;3.816;2023-04-24T08:37:27;9.90;99.90
48686;DHT22;34485;51.536;3.816;2023-04-24T08:39:53;10.10;99.90
48686;DHT22;34485;51.536;3.816;2023-04-24T08:42:20;10.10;99.90
48686;DHT22;34485;51.536;3.816;2023-04-24T08:44:46;10.10;99.90
48686;DHT22;34485;51.536;3.816;2023-04-24T08:47:15;10.10;99.90
48686;DHT22;34485;51.536;3.816;2023-04-24T08:49:41;10.10;99.90
48686;DHT22;34485;51.536;3.816;2023-04-24T08:52:08;10.20;99.90
48686;DHT22;34485;51.536;3.816;2023-04-24T08:54:35;10.20;99.90
48686;DHT22;34485;51.536;3.816;2023-04-24T08:57:02;10.20;99.90
48686;DHT22;34485;51.536;3.816;2023-04-24T08:59:32;10.10;99.90
48686;DHT22;34485;51.536;3.816;2023-04-24T09:01:59;10.30;99.90
48686;DHT22;34485;51.536;3.816;2023-04-24T09:04:25;10.30;99.90
48686;DHT22;34485;51.536;3.816;2023-04-24T09:06:56;10.30;99.90
48686;DHT22;34485;51.536;3.816;2023-04-24T09:09:26;10.40;99.90
48686;DHT22;34485;51.536;3.816;2023-04-24T09:11:54;10.40;99.90
48686;DHT22;34485;51.536;3.816;2023-04-24T09:14:21;10.40;99.90
48686;DHT22;34485;51.536;3.816;2023-04-24T09:16:46;10.40;99.90
48686;DHT22;34485;51.536;3.816;2023-04-24T09:19:12;10.30;99.90
48686;DHT22;34485;51.536;3.816;2023-04-24T09:21:38;10.10;99.90
48686;DHT22;34485;51.536;3.816;2023-04-24T09:24:09;10.10;99.90
48686;DHT22;34485;51.536;3.816;2023-04-24T09:26:40;10.00;99.90
48686;DHT22;34485;51.536;3.816;2023-04-24T09:29:06;10.00;99.90
48686;DHT22;34485;51.536;3.816;2023-04-24T09:31:31;10.00;99.90
48686;DHT22;34485;51.536;3.816;2023-04-24T09:34:02;10.10;99.90
48686;DHT22;34485;51.536;3.816;2023-04-24T09:36:35;10.30;99.90
48686;DHT22;34485;51.536;3.816;2023-04-24T09:39:06;10.30;99.90
48686;DHT22;34485;51.536;3.816;2023-04-24T09:41:47;10.30;99.90
48686;DHT22;34485;51.536;3.816;2023-04-24T09:46:40;10.40;99.90
48686;DHT22;34485;51.536;3.816;2023-04-24T09:49:13;10.20;99.90
48686;DHT22;34485;51.536;3.816;2023-04-24T09:51:40;10.20;99.90
48686;DHT22;34485;51.536;3.816;2023-04-24T09:54:17;10.30;99.90
48686;DHT22;34485;51.536;3.816;2023-04-24T09:56:44;10.30;99.90
48686;DHT22;34485;51.536;3.816;2023-04-24T09:59:11;10.50;99.90
48686;DHT22;34485;51.536;3.816;2023-04-24T10:01:37;10.70;99.90
48686;DHT22;34485;51.536;3.816;2023-04-24T10:04:04;10.70;99.90
48686;DHT22;34485;51.536;3.816;2023-04-24T10:06:36;10.70;99.90
48686;DHT22;34485;51.536;3.816;2023-04-24T10:09:02;10.90;99.90
48686;DHT22;34485;51.536;3.816;2023-04-24T10:11:29;10.90;99.90
48686;DHT22;34485;51.536;3.816;2023-04-24T10:13:56;10.90;98.50
48686;DHT22;34485;51.536;3.816;2023-04-24T10:16:23;10.90;99.50
48686;DHT22;34485;51.536;3.816;2023-04-24T10:18:49;10.80;99.90
48686;DHT22;34485;51.536;3.816;2023-04-24T10:21:16;11.00;99.50
48686;DHT22;34485;51.536;3.816;2023-04-24T10:23:42;10.90;99.50
48686;DHT22;34485;51.536;3.816;2023-04-24T10:26:13;11.10;99.90
48686;DHT22;34485;51.536;3.816;2023-04-24T10:28:46;11.30;99.90
48686;DHT22;34485;51.536;3.816;2023-04-24T10:31:13;11.50;99.70
48686;DHT22;34485;51.536;3.816;2023-04-24T10:33:43;11.70;98.80
48686;DHT22;34485;51.536;3.816;2023-04-24T10:36:10;11.70;99.40
48686;DHT22;34485;51.536;3.816;2023-04-24T10:38:37;11.80;97.60
48686;DHT22;34485;51.536;3.816;2023-04-24T10:43:41;12.90;96.60
48686;DHT22;34485;51.536;3.816;2023-04-24T10:46:08;12.90;95.00
48686;DHT22;34485;51.536;3.816;2023-04-24T10:48:36;13.30;95.80
48686;DHT22;34485;51.536;3.816;2023-04-24T10:51:11;13.40;94.80
48686;DHT22;34485;51.536;3.816;2023-04-24T10:53:38;13.60;95.10
48686;DHT22;34485;51.536;3.816;2023-04-24T10:56:08;13.60;92.70
48686;DHT22;34485;51.536;3.816;2023-04-24T10:58:42;13.40;93.10
48686;DHT22;34485;51.536;3.816;2023-04-24T11:01:29;13.00;94.40
48686;DHT22;34485;51.536;3.816;2023-04-24T11:04:02;13.00;94.70
48686;DHT22;34485;51.536;3.816;2023-04-24T11:06:35;13.20;94.60
48686;DHT22;34485;51.536;3.816;2023-04-24T11:11:44;13.10;95.20
48686;DHT22;34485;51.536;3.816;2023-04-24T11:14:10;13.10;95.70
48686;DHT22;34485;51.536;3.816;2023-04-24T11:16:42;12.80;95.50
48686;DHT22;34485;51.536;3.816;2023-04-24T11:21:49;12.70;94.70
48686;DHT22;34485;51.536;3.816;2023-04-24T11:24:49;12.40;96.10
48686;DHT22;34485;51.536;3.816;2023-04-24T11:27:17;12.10;97.20
48686;DHT22;34485;51.536;3.816;2023-04-24T11:35:14;11.30;99.90
48686;DHT22;34485;51.536;3.816;2023-04-24T11:37:45;11.00;99.90
48686;DHT22;34485;51.536;3.816;2023-04-24T11:40:18;11.00;99.90
48686;DHT22;34485;51.536;3.816;2023-04-24T11:42:52;11.30;99.90
48686;DHT22;34485;51.536;3.816;2023-04-24T11:45:20;11.80;99.90
48686;DHT22;34485;51.536;3.816;2023-04-24T11:47:46;11.80;99.40
48686;DHT22;34485;51.536;3.816;2023-04-24T11:50:17;11.80;99.00
48686;DHT22;34485;51.536;3.816;2023-04-24T11:52:45;11.70;97.60
48686;DHT22;34485;51.536;3.816;2023-04-24T11:57:42;11.60;99.10
48686;DHT22;34485;51.536;3.816;2023-04-24T12:02:44;11.80;97.20
48686;DHT22;34485;51.536;3.816;2023-04-24T12:05:19;11.90;99.30
48686;DHT22;34485;51.536;3.816;2023-04-24T12:07:45;12.40;98.20
48686;DHT22;34485;51.536;3.816;2023-04-24T12:10:11;12.60;96.50
48686;DHT22;34485;51.536;3.816;2023-04-24T12:12:37;12.60;96.30
48686;DHT22;34485;51.536;3.816;2023-04-24T12:15:07;12.50;97.20
48686;DHT22;34485;51.536;3.816;2023-04-24T12:17:34;12.60;98.00
48686;DHT22;34485;51.536;3.816;2023-04-24T12:20:04;12.80;97.40
48686;DHT22;34485;51.536;3.816;2023-04-24T12:22:55;13.10;96.10
48686;DHT22;34485;51.536;3.816;2023-04-24T12:25:26;13.10;94.50
48686;DHT22;34485;51.536;3.816;2023-04-24T12:28:14;13.10;95.00
48686;DHT22;34485;51.536;3.816;2023-04-24T12:30:50;12.70;94.90
48686;DHT22;34485;51.536;3.816;2023-04-24T12:33:20;12.60;95.70
48686;DHT22;34485;51.536;3.816;2023-04-24T12:35:48;12.60;95.80
48686;DHT22;34485;51.536;3.816;2023-04-24T12:38:15;12.70;96.00
48686;DHT22;34485;51.536;3.816;2023-04-24T12:40:41;12.70;95.40
48686;DHT22;34485;51.536;3.816;2023-04-24T12:43:19;12.70;96.00
48686;DHT22;34485;51.536;3.816;2023-04-24T12:45:49;12.60;95.70
48686;DHT22;34485;51.536;3.816;2023-04-24T12:48:14;12.60;96.30
48686;DHT22;34485;51.536;3.816;2023-04-24T12:50:40;12.80;96.30
48686;DHT22;34485;51.536;3.816;2023-04-24T12:53:07;12.70;95.20
48686;DHT22;34485;51.536;3.816;2023-04-24T12:55:33;12.40;96.90
48686;DHT22;34485;51.536;3.816;2023-04-24T12:58:01;12.00;97.80
48686;DHT22;34485;51.536;3.816;2023-04-24T13:00:28;11.80;99.40
48686;DHT22;34485;51.536;3.816;2023-04-24T13:02:53;11.70;98.00
48686;DHT22;34485;51.536;3.816;2023-04-24T13:05:19;11.50;98.90
48686;DHT22;34485;51.536;3.816;2023-04-24T13:07:45;11.40;99.90
48686;DHT22;34485;51.536;3.816;2023-04-24T13:10:11;11.40;99.90
48686;DHT22;34485;51.536;3.816;2023-04-24T13:12:36;11.10;99.90
48686;DHT22;34485;51.536;3.816;2023-04-24T13:15:03;10.90;99.90
48686;DHT22;34485;51.536;3.816;2023-04-24T13:17:28;10.80;99.90
48686;DHT22;34485;51.536;3.816;2023-04-24T13:19:55;10.70;99.90
48686;DHT22;34485;51.536;3.816;2023-04-24T13:22:20;10.90;99.90
48686;DHT22;34485;51.536;3.816;2023-04-24T13:24:46;11.20;99.90
48686;DHT22;34485;51.536;3.816;2023-04-24T13:27:17;11.60;99.90
48686;DHT22;34485;51.536;3.816;2023-04-24T13:29:43;12.00;99.90
48686;DHT22;34485;51.536;3.816;2023-04-24T13:32:09;12.00;99.90
48686;DHT22;34485;51.536;3.816;2023-04-24T13:34:34;11.80;99.10
48686;DHT22;34485;51.536;3.816;2023-04-24T13:37:00;11.40;99.90
48686;DHT22;34485;51.536;3.816;2023-04-24T13:39:26;11.20;99.90
48686;DHT22;34485;51.536;3.816;2023-04-24T13:41:53;11.00;99.90
48686;DHT22;34485;51.536;3.816;2023-04-24T13:44:19;10.80;99.90
48686;DHT22;34485;51.536;3.816;2023-04-24T13:46:47;10.70;99.90
48686;DHT22;34485;51.536;3.816;2023-04-24T13:49:13;10.60;99.90
48686;DHT22;34485;51.536;3.816;2023-04-24T13:51:40;10.70;99.90
48686;DHT22;34485;51.536;3.816;2023-04-24T13:54:06;10.90;99.90
48686;DHT22;34485;51.536;3.816;2023-04-24T13:56:31;11.50;99.90
48686;DHT22;34485;51.536;3.816;2023-04-24T13:58:57;12.10;99.90
48686;DHT22;34485;51.536;3.816;2023-04-24T14:01:24;12.40;99.90
48686;DHT22;34485;51.536;3.816;2023-04-24T14:03:54;12.30;97.40
48686;DHT22;34485;51.536;3.816;2023-04-24T14:06:20;12.20;97.30
48686;DHT22;34485;51.536;3.816;2023-04-24T14:08:47;12.10;96.90
48686;DHT22;34485;51.536;3.816;2023-04-24T14:11:13;12.10;98.70
48686;DHT22;34485;51.536;3.816;2023-04-24T14:13:42;12.00;96.90
48686;DHT22;34485;51.536;3.816;2023-04-24T14:16:08;12.10;97.10
48686;DHT22;34485;51.536;3.816;2023-04-24T14:18:33;12.30;98.60
48686;DHT22;34485;51.536;3.816;2023-04-24T14:20:59;12.20;98.10
48686;DHT22;34485;51.536;3.816;2023-04-24T14:23:26;12.00;98.10
48686;DHT22;34485;51.536;3.816;2023-04-24T14:25:52;11.50;98.70
48686;DHT22;34485;51.536;3.816;2023-04-24T14:28:19;11.40;99.20
48686;DHT22;34485;51.536;3.816;2023-04-24T14:30:45;11.30;98.70
48686;DHT22;34485;51.536;3.816;2023-04-24T14:33:11;11.10;98.90
48686;DHT22;34485;51.536;3.816;2023-04-24T14:35:38;11.00;99.90
48686;DHT22;34485;51.536;3.816;2023-04-24T14:38:04;11.00;99.90
48686;DHT22;34485;51.536;3.816;2023-04-24T14:40:30;10.80;99.90
48686;DHT22;34485;51.536;3.816;2023-04-24T14:42:56;10.70;99.90
48686;DHT22;34485;51.536;3.816;2023-04-24T14:45:23;10.80;99.90
48686;DHT22;34485;51.536;3.816;2023-04-24T14:47:49;11.00;99.90
48686;DHT22;34485;51.536;3.816;2023-04-24T14:50:15;11.20;99.90
48686;DHT22;34485;51.536;3.816;2023-04-24T14:52:40;11.40;99.00
48686;DHT22;34485;51.536;3.816;2023-04-24T14:55:06;11.50;98.30
48686;DHT22;34485;51.536;3.816;2023-04-24T14:57:33;11.60;97.20
48686;DHT22;34485;51.536;3.816;2023-04-24T14:59:59;11.70;97.10
48686;DHT22;34485;51.536;3.816;2023-04-24T15:02:24;11.70;98.10
48686;DHT22;34485;51.536;3.816;2023-04-24T15:04:50;11.60;97.90
48686;DHT22;34485;51.536;3.816;2023-04-24T15:07:16;11.50;98.80
48686;DHT22;34485;51.536;3.816;2023-04-24T15:09:41;11.60;98.30
48686;DHT22;34485;51.536;3.816;2023-04-24T15:12:08;11.60;98.30
48686;DHT22;34485;51.536;3.816;2023-04-24T15:14:34;11.60;98.20
48686;DHT22;34485;51.536;3.816;2023-04-24T15:16:59;11.60;99.90
48686;DHT22;34485;51.536;3.816;2023-04-24T15:19:25;11.60;98.70
48686;DHT22;34485;51.536;3.816;2023-04-24T15:21:50;11.40;99.20
48686;DHT22;34485;51.536;3.816;2023-04-24T15:24:16;11.30;99.50
48686;DHT22;34485;51.536;3.816;2023-04-24T15:26:42;11.50;99.90
48686;DHT22;34485;51.536;3.816;2023-04-24T15:29:07;11.60;99.50
48686;DHT22;34485;51.536;3.816;2023-04-24T15:31:33;11.60;98.30
48686;DHT22;34485;51.536;3.816;2023-04-24T15:33:58;11.50;98.30
48686;DHT22;34485;51.536;3.816;2023-04-24T15:36:24;11.30;96.30
48686;DHT22;34485;51.536;3.816;2023-04-24T15:38:50;11.20;96.70
48686;DHT22;34485;51.536;3.816;2023-04-24T15:41:15;11.20;96.00
48686;DHT22;34485;51.536;3.816;2023-04-24T15:43:41;11.20;97.30
48686;DHT22;34485;51.536;3.816;2023-04-24T15:46:08;11.30;98.70
48686;DHT22;34485;51.536;3.816;2023-04-24T15:48:34;11.30;99.60
48686;DHT22;34485;51.536;3.816;2023-04-24T15:51:00;11.30;98.30
48686;DHT22;34485;51.536;3.816;2023-04-24T15:53:26;11.40;96.50
48686;DHT22;34485;51.536;3.816;2023-04-24T15:55:53;11.30;96.00
48686;DHT22;34485;51.536;3.816;2023-04-24T15:58:22;11.30;96.30